Thursday, April 26, 2018, 5:33 AM EDT
Back to Local

KLEB, Lebanon Municipal Airport

Location: Lebanon, NH, United States Lat: 43.633
Local Time: 5:33 AM EDT ( 9:33 GMT) Lon: -72.3
Time Zone: US/Eastern Elev: 597 ft

Show me the last for .
Show Decoded

2018-04-26 05:27 METAR KLEB 260927Z AUTO 00000KT 1 3/4SM BR OVC001 10/08 A2956 RMK AO2 VIS 1V4
                 RAB0854E08 P0000 T01000083 =
2018-04-26 05:17 METAR KLEB 260917Z AUTO 00000KT 7SM BKN001 OVC014 11/09 A2957 RMK AO2 RAB0854E08
                 P0000 T01060089 =
2018-04-26 04:53 METAR KLEB 260853Z AUTO 00000KT 8SM FEW001 OVC014 11/09 A2957 RMK AO2 RAB0758E20
                 SLP011 P0001 60001 T01060089 56016 =
2018-04-26 04:48 METAR KLEB 260848Z AUTO 00000KT 3SM BR FEW001 OVC014 10/08 A2957 RMK AO2
                 RAB0758E20 P0001 =
2018-04-26 04:44 METAR KLEB 260844Z AUTO 00000KT 1 1/4SM BR FEW001 OVC014 10/08 A2957 RMK AO2
                 RAB0758E20 P0001 T01000083 =
2018-04-26 04:38 METAR KLEB 260838Z AUTO 00000KT 3/4SM BR SCT001 BKN015 OVC025 10/08 A2957 RMK
                 AO2 RAB0758E20 P0001 T01000083 =
2018-04-26 04:28 METAR KLEB 260828Z AUTO 00000KT 1 3/4SM BR SCT001 BKN014 OVC025 11/09 A2957 RMK
                 AO2 RAB0758E20 P0001 T01060089 =
2018-04-26 04:18 METAR KLEB 260818Z AUTO 00000KT 7SM -RA SCT001 OVC013 11/08 A2958 RMK AO2
                 RAB0758 P0001 T01060083 =
2018-04-26 03:53 METAR KLEB 260753Z AUTO 00000KT 10SM OVC013 10/08 A2958 RMK AO2 SLP015 T01000083
                 =
2018-04-26 02:53 METAR KLEB 260653Z AUTO 03005KT 10SM OVC011 11/08 A2959 RMK AO2 RAB20E31 SLP019
                 P0000 T01060083 =
2018-04-26 01:53 METAR KLEB 260553Z AUTO 02004KT 10SM OVC010 11/09 A2962 RMK AO2 RAE05 SLP028
                 P0000 60008 T01060089 10122 20106 58022 =
2018-04-26 01:32 METAR KLEB 260532Z AUTO 01003KT 10SM BKN010 OVC015 11/09 A2963 RMK AO2 RAE05
                 P0000 T01060089 =
2018-04-26 01:14 METAR KLEB 260514Z AUTO 05003KT 10SM SCT012 OVC017 11/08 A2964 RMK AO2 RAE05
                 P0000 T01060083 =
2018-04-26 00:53 METAR KLEB 260453Z AUTO 06004KT 5SM -RA BR OVC014 11/08 A2965 RMK AO2 RAE17B41
                 SLP037 P0002 T01060083 401390094 =
2018-04-26 00:41 METAR KLEB 260441Z AUTO 05004KT 3SM -RA BR SCT011 OVC014 11/08 A2965 RMK AO2
                 RAE17B41 P0001 T01060083 =
2018-04-26 00:32 METAR KLEB 260432Z AUTO 04003KT 2 1/2SM BR OVC011 11/08 A2966 RMK AO2 RAE17
                 P0001 T01060083 =
2018-04-26 00:18 METAR KLEB 260418Z AUTO 02004KT 8SM OVC009 11/09 A2967 RMK AO2 RAE17 P0001
                 T01060089 =
2018-04-25 23:53 METAR KLEB 260353Z AUTO 00000KT 10SM -RA OVC010 11/09 A2967 RMK AO2 SLP047 P0004
                 T01060089 =
2018-04-25 23:03 METAR KLEB 260303Z AUTO 00000KT 10SM -RA BKN013 OVC020 11/09 A2968 RMK AO2 P0000
                 T01110089 =
2018-04-25 22:53 METAR KLEB 260253Z AUTO 05003KT 9SM -RA SCT011 OVC020 11/09 A2969 RMK AO2
                 RAE33B50 SLP051 P0001 60002 T01110089 58020 =
2018-04-25 21:53 METAR KLEB 260153Z 00000KT 10SM -RA OVC011 12/09 A2971 RMK AO2 RAB42 SLP059
                 P0001 T01170089 =
2018-04-25 21:18 METAR KLEB 260118Z 00000KT 10SM OVC013 12/09 A2973 RMK AO2 T01170089 =
2018-04-25 20:53 METAR KLEB 260053Z 08003KT 10SM OVC016 12/09 A2974 RMK AO2 RAB2357E26 SLP068
                 P0000 T01170089 =
2018-04-25 20:43 METAR KLEB 260043Z 03004KT 10SM OVC015 12/09 A2974 RMK AO2 RAB2357E26 P0000
                 T01170089 =
2018-04-25 19:53 METAR KLEB 252353Z 06004KT 10SM OVC014 12/09 A2975 RMK AO2 RAE52 SLP072 P0004
                 60009 T01220094 10139 20122 56023 =
2018-04-25 19:23 METAR KLEB 252323Z 07005KT 4SM -RA BKN013 OVC031 12/09 A2975 RMK AO2 P0003
                 T01220094 =
2018-04-25 18:53 METAR KLEB 252253Z 00000KT 8SM -RA BKN015 OVC038 12/10 A2976 RMK AO2 SLP077
                 P0005 T01220100 =
2018-04-25 18:37 METAR KLEB 252237Z 06005KT 8SM -RA OVC015 13/09 A2977 RMK AO2 P0004 T01280094 =
2018-04-25 17:53 METAR KLEB 252153Z 06003KT 9SM -RA OVC014 13/10 A2979 RMK AO2 RAB32 SLP085 P0000
                 T01330100 =
2018-04-25 16:53 METAR KLEB 252053Z 05004KT 6SM BR OVC013 13/11 A2982 RMK AO2 RAB28E46 SLP094
                 P0000 60000 T01330106 56034 =
2018-04-25 16:33 METAR KLEB 252033Z 03004KT 3SM -RA BR BKN011 BKN015 OVC023 13/11 A2983 RMK AO2
                 RAB28 P0000 T01330111 =
2018-04-25 16:00 METAR KLEB 252000Z VRB03KT 8SM BR SCT013 BKN019 OVC035 14/10 A2984 RMK AO2
                 T01390100 =
2018-04-25 15:53 METAR KLEB 251953Z VRB05KT 2 1/2SM BR BKN008 OVC013 13/10 A2985 RMK AO2 SLP104
                 T01330100 =
2018-04-25 15:00 METAR KLEB 251900Z 00000KT 2 1/2SM BR BKN008 OVC013 12/10 A2988 RMK AO2
                 T01220100 =
2018-04-25 14:53 METAR KLEB 251853Z 32003KT 3SM BR BKN008 OVC013 12/09 A2988 RMK AO2 SLP118
                 T01220094 =
2018-04-25 14:37 METAR KLEB 251837Z 00000KT 3SM BR BKN008 OVC013 12/09 A2989 RMK AO2 T01170094 =
2018-04-25 14:30 METAR KLEB 251830Z 31003KT 5SM HZ FEW008 OVC013 12/09 A2990 RMK AO2 T01220094 =
2018-04-25 13:53 METAR KLEB 251753Z 05004KT 9SM OVC012 12/09 A2992 RMK AO2 RAE37 SLP128 P0002
                 60025 T01170094 10117 20100 58040 =
2018-04-25 12:53 METAR KLEB 251653Z 05005KT 4SM -RA FEW007 BKN013 OVC019 11/08 A2996 RMK AO2
                 SLP143 P0003 T01110083 =
2018-04-25 12:22 METAR KLEB 251622Z 04007KT 2 1/2SM -RA BR SCT006 BKN014 OVC023 11/08 A2998 RMK
                 AO2 P0002 T01060083 =
2018-04-25 12:10 METAR KLEB 251610Z 04006KT 2 1/2SM -RA BR SCT004 BKN008 OVC023 11/08 A2999 RMK
                 AO2 P0001 T01060083 =
2018-04-25 11:55 METAR KLEB 251555Z 04008KT 2 1/2SM -RA BR SCT004 BKN012 OVC025 11/08 A3000 RMK
                 AO2 P0000 T01060083 =
2018-04-25 11:53 METAR KLEB 251553Z 04007KT 3SM -RA BR SCT004 BKN011 OVC030 11/08 A3000 RMK AO2
                 SLP158 P0012 T01060083 =
2018-04-25 11:40 METAR KLEB 251540Z 04008KT 2SM -RA BR FEW002 BKN006 OVC017 11/08 A3001 RMK AO2
                 P0010 T01060083 =
2018-04-25 11:31 METAR KLEB 251531Z 03006KT 1 3/4SM -RA BR BKN007 BKN016 OVC042 11/08 A3001 RMK
                 AO2 P0008 T01060083 =
2018-04-25 11:26 METAR KLEB 251526Z 05007KT 2SM -RA BR SCT007 BKN017 OVC044 11/08 A3002 RMK AO2
                 P0007 T01060083 =
2018-04-25 11:17 METAR KLEB 251517Z 05008KT 2 1/2SM RA BR FEW009 BKN034 OVC046 11/08 A3002 RMK
                 AO2 P0004 T01060083 =
2018-04-25 10:53 METAR KLEB 251453Z 06006KT 4SM -RA SCT017 SCT026 OVC034 11/08 A3003 RMK AO2
                 SLP169 P0005 60008 T01060078 56023 =
2018-04-25 09:53 METAR KLEB 251353Z 35003KT 6SM -RA BKN041 BKN060 OVC075 11/08 A3006 RMK AO2
                 SLP176 P0003 T01110078 =
2018-04-25 08:53 METAR KLEB 251253Z 34003KT 10SM -RA FEW041 BKN048 OVC060 11/06 A3008 RMK AO2
                 RAE27B45 SLP183 P0000 T01060061 =
2018-04-25 07:53 METAR KLEB 251153Z 00000KT 9SM -RA FEW033 BKN048 OVC060 10/06 A3010 RMK AO2
                 SLP192 P0001 60002 70002 T01000061 10128 20094 58001 =
2018-04-25 07:33 METAR KLEB 251133Z 00000KT 7SM -RA SCT021 SCT049 OVC060 09/07 A3011 RMK AO2
                 P0000 T00940067 =
2018-04-25 06:53 METAR KLEB 251053Z 00000KT 10SM -RA OVC020 09/06 A3011 RMK AO2 RAB32 SLP193
                 P0001 T00940061 =
2018-04-25 06:28 METAR KLEB 251028Z 05003KT 10SM BKN020 BKN028 OVC070 09/06 A3011 RMK AO2
                 T00940056 =
2018-04-25 05:53 METAR KLEB 250953Z AUTO 00000KT 10SM SCT023 OVC055 09/06 A3011 RMK AO2 RAE41
                 SLP190 P0000 T00940056 =
2018-04-25 05:49 METAR KLEB 250949Z AUTO 00000KT 10SM SCT023 OVC055 09/06 A3011 RMK AO2 RAE41
                 P0000 =
2018-04-25 05:34 METAR KLEB 250934Z AUTO 00000KT 10SM -RA BKN023 OVC055 09/05 A3011 RMK AO2 P0000
                 T00940050 =

Support USWX by starting your Amazon purchase here.